createdAt,value
2023-03-26T00:01:25.457Z,12.25
2023-03-26T00:03:54.867Z,12.00
2023-03-26T00:06:24.262Z,10.00
2023-03-26T00:08:51.981Z,10.33
2023-03-26T00:11:40.438Z,14.75
2023-03-26T00:14:07.326Z,9.00
2023-03-26T00:16:34.410Z,10.33
2023-03-26T00:19:02.144Z,7.67
2023-03-26T00:21:31.377Z,13.25
2023-03-26T00:24:07.511Z,7.50
2023-03-26T00:26:37.781Z,10.00
2023-03-26T00:29:07.000Z,8.00
2023-03-26T00:31:35.803Z,10.00
2023-03-26T00:34:05.571Z,8.67
2023-03-26T00:36:36.021Z,6.00
2023-03-26T00:39:06.141Z,13.00
2023-03-26T00:41:37.283Z,12.50
2023-03-26T00:44:04.756Z,12.67
2023-03-26T00:46:32.261Z,10.00
2023-03-26T00:49:01.847Z,13.50
2023-03-26T00:51:28.786Z,10.00
2023-03-26T00:53:56.704Z,10.33
2023-03-26T00:56:24.243Z,11.00
2023-03-26T00:58:51.256Z,9.00
2023-03-26T01:01:28.676Z,13.50
2023-03-26T01:04:28.574Z,10.00
2023-03-26T01:06:55.980Z,7.33
2023-03-26T01:09:33.108Z,8.67
2023-03-26T01:12:02.850Z,9.00
2023-03-26T01:14:29.816Z,7.00
2023-03-26T01:16:59.483Z,11.00
2023-03-26T01:19:38.293Z,11.33
2023-03-26T01:22:11.456Z,9.00
2023-03-26T01:24:40.187Z,10.00
2023-03-26T01:27:25.913Z,8.33
2023-03-26T01:30:20.921Z,10.50
2023-03-26T01:33:00.883Z,8.33
2023-03-26T01:35:41.896Z,9.67
2023-03-26T01:38:27.923Z,7.33
2023-03-26T01:41:19.444Z,11.00
2023-03-26T01:43:49.562Z,6.33
2023-03-26T01:46:19.485Z,7.00
2023-03-26T01:48:47.770Z,8.33
2023-03-26T01:51:26.406Z,7.00
2023-03-26T01:53:55.513Z,12.00
2023-03-26T01:56:31.515Z,7.50
2023-03-26T01:59:39.903Z,6.00
2023-03-26T02:02:17.549Z,6.00
2023-03-26T02:05:08.672Z,13.50
2023-03-26T02:07:51.381Z,7.00
2023-03-26T02:10:29.638Z,6.50
2023-03-26T02:12:57.766Z,8.33
2023-03-26T02:15:25.749Z,12.25
2023-03-26T02:17:54.197Z,6.75
2023-03-26T02:20:21.645Z,7.67
2023-03-26T02:22:49.348Z,9.75
2023-03-26T02:25:21.280Z,6.33
2023-03-26T02:27:50.766Z,8.75
2023-03-26T02:30:25.757Z,8.33
2023-03-26T02:32:54.186Z,9.00
2023-03-26T02:35:22.624Z,4.00
2023-03-26T02:37:51.118Z,7.00
2023-03-26T02:40:21.336Z,8.00
2023-03-26T02:42:49.666Z,12.25
2023-03-26T02:45:16.755Z,6.00
2023-03-26T02:47:46.241Z,12.50
2023-03-26T02:50:13.098Z,10.33
2023-03-26T02:52:40.057Z,9.00
2023-03-26T02:55:07.528Z,10.67
2023-03-26T02:57:35.190Z,9.75
2023-03-26T03:00:05.975Z,9.00
2023-03-26T03:02:32.861Z,10.00
2023-03-26T03:05:01.599Z,9.50
2023-03-26T03:07:29.231Z,9.33
2023-03-26T03:10:02.744Z,9.25
2023-03-26T03:12:29.527Z,9.33
2023-03-26T03:14:56.239Z,10.00
2023-03-26T03:17:24.545Z,9.50
2023-03-26T03:22:41.016Z,11.75
2023-03-26T03:31:09.454Z,12.50
2023-03-26T03:34:15.668Z,9.50
2023-03-26T03:36:42.466Z,9.00
2023-03-26T03:39:09.344Z,9.33
2023-03-26T03:41:37.044Z,11.00
2023-03-26T03:44:06.814Z,12.33
2023-03-26T03:46:33.811Z,17.00
2023-03-26T03:49:00.652Z,9.50
2023-03-26T03:51:27.429Z,9.00
2023-03-26T03:53:55.900Z,13.00
2023-03-26T03:56:24.387Z,9.00
2023-03-26T03:58:52.052Z,13.00
2023-03-26T04:01:23.013Z,10.50
2023-03-26T04:03:50.787Z,11.50
2023-03-26T04:06:21.599Z,12.00
2023-03-26T04:08:49.311Z,11.00
2023-03-26T04:11:16.162Z,12.33
2023-03-26T04:13:44.600Z,12.00
2023-03-26T04:16:11.571Z,9.33
2023-03-26T04:18:38.467Z,8.67
2023-03-26T04:21:07.651Z,12.00
2023-03-26T04:23:35.138Z,15.00
2023-03-26T04:26:05.861Z,9.33
2023-03-26T04:28:47.845Z,13.00
2023-03-26T04:31:18.928Z,9.33
2023-03-26T04:33:50.461Z,10.00
2023-03-26T04:36:18.371Z,12.50
2023-03-26T04:38:52.078Z,13.75
2023-03-26T04:41:19.004Z,10.00
2023-03-26T04:43:50.868Z,13.00
2023-03-26T04:46:18.633Z,12.00
2023-03-26T04:48:45.450Z,11.33
2023-03-26T04:51:18.404Z,5.33
2023-03-26T04:53:53.336Z,13.00
2023-03-26T04:56:30.145Z,10.25
2023-03-26T04:59:01.403Z,9.50
2023-03-26T05:01:28.797Z,7.67
2023-03-26T05:03:55.870Z,10.00
2023-03-26T05:06:25.185Z,12.25
2023-03-26T05:08:52.852Z,12.00
2023-03-26T05:11:21.081Z,10.00
2023-03-26T05:13:47.979Z,15.00
2023-03-26T05:16:14.809Z,12.50
2023-03-26T05:18:41.961Z,12.00
2023-03-26T05:21:09.084Z,15.50
2023-03-26T05:23:36.175Z,15.00
2023-03-26T05:26:03.047Z,11.00
2023-03-26T05:28:29.956Z,15.00
2023-03-26T05:30:57.108Z,12.50
2023-03-26T05:33:24.821Z,14.00
2023-03-26T05:36:03.778Z,15.50
2023-03-26T05:38:31.621Z,13.00
2023-03-26T05:41:03.995Z,12.50
2023-03-26T05:43:31.393Z,18.00
2023-03-26T05:45:58.344Z,12.00
2023-03-26T05:48:26.922Z,13.50
2023-03-26T05:50:56.304Z,15.00
2023-03-26T05:53:24.973Z,18.00
2023-03-26T05:55:58.311Z,15.50
2023-03-26T05:58:26.513Z,15.00
2023-03-26T06:01:05.764Z,12.00
2023-03-26T06:03:33.766Z,16.00
2023-03-26T06:06:00.760Z,14.50
2023-03-26T06:08:27.650Z,11.00
2023-03-26T06:11:02.137Z,16.00
2023-03-26T06:13:29.145Z,14.00
2023-03-26T06:15:57.906Z,12.00
2023-03-26T06:18:28.508Z,14.29
2023-03-26T06:20:55.479Z,13.00
2023-03-26T06:23:23.368Z,15.00
2023-03-26T06:25:51.068Z,12.25
2023-03-26T06:28:18.269Z,9.67
2023-03-26T06:30:49.002Z,11.83
2023-03-26T06:33:17.119Z,12.25
2023-03-26T06:35:45.607Z,16.00
2023-03-26T06:38:13.192Z,15.50
2023-03-26T06:40:39.980Z,6.00
2023-03-26T06:43:10.661Z,11.25
2023-03-26T06:45:38.325Z,14.50
2023-03-26T06:48:06.461Z,18.50
2023-03-26T06:50:33.315Z,9.00
2023-03-26T06:53:00.456Z,14.00
2023-03-26T06:55:28.058Z,11.75
2023-03-26T06:57:57.017Z,11.00
2023-03-26T07:00:24.264Z,13.00
2023-03-26T07:02:51.308Z,11.00
2023-03-26T07:05:20.472Z,12.20
2023-03-26T07:07:49.683Z,13.50
2023-03-26T07:10:16.703Z,10.00
2023-03-26T07:12:43.674Z,10.00
2023-03-26T07:15:11.074Z,13.50
2023-03-26T07:17:37.892Z,12.00
2023-03-26T07:20:08.843Z,10.00
2023-03-26T07:22:37.443Z,8.00
2023-03-26T07:25:05.529Z,8.00
2023-03-26T07:27:54.224Z,10.00
2023-03-26T07:30:47.544Z,14.50
2023-03-26T07:33:14.237Z,8.00
2023-03-26T07:35:53.479Z,7.33
2023-03-26T07:38:31.721Z,9.00
2023-03-26T07:41:11.873Z,10.50
2023-03-26T07:43:58.274Z,8.00
2023-03-26T07:46:32.124Z,9.00
2023-03-26T07:49:00.483Z,8.50
2023-03-26T07:51:28.958Z,8.00
2023-03-26T07:53:56.347Z,9.67
2023-03-26T07:56:42.987Z,8.00
2023-03-26T07:59:38.712Z,5.25
2023-03-26T08:02:27.312Z,7.75
2023-03-26T08:05:19.955Z,12.75
2023-03-26T08:08:02.954Z,7.50
2023-03-26T08:10:51.473Z,5.67
2023-03-26T08:13:37.740Z,5.50
2023-03-26T08:16:19.578Z,6.00
2023-03-26T08:19:00.803Z,6.00
2023-03-26T08:22:12.606Z,5.00
2023-03-26T08:24:54.159Z,6.00
2023-03-26T08:27:40.114Z,5.75
2023-03-26T08:30:17.515Z,4.25
2023-03-26T08:33:00.472Z,5.75
2023-03-26T08:35:28.621Z,4.00
2023-03-26T08:37:56.354Z,6.00
2023-03-26T08:40:38.937Z,5.75
2023-03-26T08:43:11.456Z,5.67
2023-03-26T08:46:00.521Z,4.25
2023-03-26T08:48:53.912Z,3.75
2023-03-26T08:52:06.771Z,2.00
2023-03-26T08:54:51.582Z,1.00
2023-03-26T08:57:57.459Z,1.00
2023-03-26T09:00:42.890Z,1.00
2023-03-26T09:03:51.340Z,1.00
2023-03-26T09:06:38.274Z,5.00
2023-03-26T09:09:23.962Z,1.00
2023-03-26T09:12:17.641Z,4.00
2023-03-26T09:15:21.940Z,0.00
2023-03-26T09:18:12.311Z,0.00
2023-03-26T09:20:55.272Z,1.00
2023-03-26T09:23:44.324Z,1.00
2023-03-26T09:26:28.007Z,0.50
2023-03-26T09:29:06.828Z,1.50
2023-03-26T09:32:03.069Z,1.00
2023-03-26T09:34:45.167Z,1.50
2023-03-26T09:37:36.807Z,0.75
2023-03-26T09:41:01.678Z,0.25
2023-03-26T09:44:08.120Z,0.75
2023-03-26T09:47:27.691Z,0.00
2023-03-26T09:50:17.176Z,2.00
2023-03-26T09:52:57.412Z,1.25
2023-03-26T09:58:24.112Z,0.00
2023-03-26T10:01:29.442Z,0.75
2023-03-26T10:04:04.405Z,1.00
2023-03-26T10:06:58.831Z,0.00
2023-03-26T10:09:26.434Z,0.75
2023-03-26T10:12:22.494Z,0.75
2023-03-26T10:15:17.784Z,0.50
2023-03-26T10:18:27.285Z,0.00
2023-03-26T10:21:15.906Z,0.00
2023-03-26T10:23:46.364Z,1.75
2023-03-26T10:27:08.307Z,0.00
2023-03-26T10:29:44.249Z,0.00
2023-03-26T10:32:32.971Z,0.00
2023-03-26T10:35:23.293Z,0.00
2023-03-26T10:38:16.718Z,0.00
2023-03-26T10:41:11.863Z,0.00
2023-03-26T10:44:13.362Z,0.50
2023-03-26T10:47:08.552Z,43.25
2023-03-26T10:49:57.907Z,2.25
2023-03-26T10:52:31.607Z,0.00
2023-03-26T10:55:27.632Z,1.00
2023-03-26T10:58:19.298Z,0.50
2023-03-26T11:00:57.413Z,0.00
2023-03-26T11:03:46.338Z,0.00
2023-03-26T11:06:16.705Z,0.50
2023-03-26T11:09:04.280Z,1.00
2023-03-26T11:11:33.808Z,1.00
2023-03-26T11:14:21.327Z,0.50
2023-03-26T11:17:14.864Z,0.00
2023-03-26T11:20:30.141Z,0.00
2023-03-26T11:23:21.059Z,0.00
2023-03-26T11:26:08.711Z,0.75
2023-03-26T11:32:11.983Z,0.50
2023-03-26T11:34:36.776Z,0.75
2023-03-26T11:34:42.950Z,0.00
2023-03-26T11:37:27.824Z,0.00
2023-03-26T11:39:59.666Z,1.00
2023-03-26T11:42:34.040Z,0.25
2023-03-26T11:45:14.798Z,0.00
2023-03-26T11:47:51.972Z,1.00
2023-03-26T11:50:27.992Z,0.00
2023-03-26T11:53:03.255Z,1.00
2023-03-26T11:55:32.273Z,0.00
2023-03-26T11:58:01.364Z,0.00
2023-03-26T12:00:29.856Z,0.00
2023-03-26T12:02:59.132Z,1.00
2023-03-26T12:05:36.765Z,1.00
2023-03-26T12:08:19.727Z,1.00
2023-03-26T12:10:58.467Z,2.50
2023-03-26T12:13:44.859Z,0.00
2023-03-26T12:16:22.752Z,0.00
2023-03-26T12:19:19.464Z,0.00
2023-03-26T12:21:49.241Z,2.00
2023-03-26T12:24:32.324Z,1.00
2023-03-26T12:27:02.805Z,0.67
2023-03-26T12:29:34.710Z,0.00
2023-03-26T12:32:13.368Z,2.00
2023-03-26T12:34:42.156Z,0.00
2023-03-26T12:37:10.422Z,0.00
2023-03-26T12:47:58.312Z,0.00
2023-03-26T12:55:42.440Z,0.00
2023-03-26T13:05:05.014Z,0.00
2023-03-26T13:07:39.963Z,1.67
2023-03-26T13:13:10.512Z,0.00
2023-03-26T13:21:06.613Z,0.50
2023-03-26T13:30:12.973Z,1.00
2023-03-26T13:38:58.917Z,1.00
2023-03-26T13:42:10.153Z,4.00
2023-03-26T13:45:05.268Z,1.00
2023-03-26T13:47:42.721Z,0.00
2023-03-26T13:50:36.171Z,0.50
2023-03-26T13:53:19.931Z,0.00
2023-03-26T13:55:54.644Z,0.00
2023-03-26T13:58:40.581Z,0.00
2023-03-26T14:01:17.857Z,2.00
2023-03-26T14:04:18.011Z,0.00
2023-03-26T14:07:01.546Z,0.00
2023-03-26T14:10:02.192Z,0.00
2023-03-26T14:12:49.052Z,2.00
2023-03-26T14:15:33.848Z,2.50
2023-03-26T14:18:26.217Z,0.50
2023-03-26T14:21:09.893Z,1.00
2023-03-26T14:23:53.473Z,2.00
2023-03-26T14:26:38.059Z,1.00
2023-03-26T14:29:23.996Z,2.00
2023-03-26T14:32:24.299Z,1.00
2023-03-26T14:35:27.758Z,1.75
2023-03-26T14:37:58.700Z,2.00
2023-03-26T14:40:30.392Z,0.25
2023-03-26T14:43:11.596Z,0.50
2023-03-26T14:46:10.382Z,1.00
2023-03-26T14:48:45.930Z,1.00
2023-03-26T14:51:24.772Z,1.00
2023-03-26T14:53:57.838Z,2.00
2023-03-26T14:56:34.351Z,1.00
2023-03-26T14:59:40.252Z,1.75
2023-03-26T15:02:46.299Z,1.00
2023-03-26T15:05:28.692Z,1.00
2023-03-26T15:08:20.678Z,0.50
2023-03-26T15:11:35.221Z,1.00
2023-03-26T15:14:21.000Z,2.00
2023-03-26T15:17:04.548Z,1.00
2023-03-26T15:19:40.823Z,1.00
2023-03-26T15:22:32.875Z,0.25
2023-03-26T15:25:36.530Z,0.50
2023-03-26T15:28:21.078Z,1.50
2023-03-26T15:31:09.885Z,2.00
2023-03-26T15:34:06.232Z,1.00
2023-03-26T15:36:38.598Z,2.00
2023-03-26T15:39:59.393Z,4.00
2023-03-26T15:43:02.405Z,1.50
2023-03-26T15:45:35.183Z,1.75
2023-03-26T15:48:13.679Z,2.00
2023-03-26T15:51:03.637Z,2.00
2023-03-26T15:54:09.328Z,1.00
2023-03-26T15:57:01.576Z,0.25
2023-03-26T15:59:37.315Z,2.00
2023-03-26T16:02:07.539Z,2.00
2023-03-26T16:04:50.693Z,3.00
2023-03-26T16:07:21.900Z,2.00
2023-03-26T16:10:01.168Z,4.00
2023-03-26T16:12:33.728Z,2.00
2023-03-26T16:15:07.381Z,4.00
2023-03-26T16:18:12.371Z,3.00
2023-03-26T16:21:38.575Z,2.00
2023-03-26T16:24:08.663Z,2.00
2023-03-26T16:26:45.568Z,4.00
2023-03-26T16:29:22.367Z,3.50
2023-03-26T16:32:10.155Z,3.00
2023-03-26T16:34:58.199Z,5.00
2023-03-26T16:37:39.832Z,3.50
2023-03-26T16:40:28.363Z,6.00
2023-03-26T16:43:10.413Z,5.50
2023-03-26T16:45:42.411Z,7.00
2023-03-26T16:48:41.703Z,9.50
2023-03-26T16:51:56.253Z,8.00
2023-03-26T16:54:39.741Z,6.50
2023-03-26T16:57:43.349Z,5.00
2023-03-26T17:00:16.258Z,10.00
2023-03-26T17:03:00.081Z,2.00
2023-03-26T17:09:44.227Z,6.75
2023-03-26T17:12:34.742Z,9.80
2023-03-26T17:15:19.556Z,9.50
2023-03-26T17:17:50.438Z,13.00
2023-03-26T17:20:33.574Z,13.60
2023-03-26T17:23:27.345Z,14.67
2023-03-26T17:25:57.821Z,20.50
2023-03-26T17:28:44.119Z,28.00
2023-03-26T17:31:13.100Z,34.00
2023-03-26T17:33:42.098Z,43.67
2023-03-26T17:36:21.356Z,46.00
2023-03-26T17:38:49.154Z,46.33
2023-03-26T17:41:55.415Z,33.67
2023-03-26T17:44:41.051Z,28.00
2023-03-26T17:47:27.550Z,18.50
2023-03-26T17:50:00.999Z,13.67
2023-03-26T17:52:35.763Z,9.00
2023-03-26T17:55:03.514Z,7.00
2023-03-26T17:57:51.446Z,7.00
2023-03-26T18:00:22.976Z,14.00
2023-03-26T18:02:59.433Z,8.00
2023-03-26T18:05:29.657Z,9.00
2023-03-26T18:08:34.726Z,12.00
2023-03-26T18:11:21.469Z,12.60
2023-03-26T18:14:11.194Z,11.00
2023-03-26T18:16:53.296Z,9.20
2023-03-26T18:19:23.641Z,12.80
2023-03-26T18:22:06.157Z,10.00
2023-03-26T18:24:37.828Z,6.50
2023-03-26T18:27:12.629Z,7.50
2023-03-26T18:29:44.062Z,12.50
2023-03-26T18:32:11.676Z,12.00
2023-03-26T18:34:46.293Z,6.00
2023-03-26T18:37:24.449Z,12.00
2023-03-26T18:40:10.359Z,8.00
2023-03-26T18:42:40.414Z,4.00
2023-03-26T18:45:32.800Z,6.00
2023-03-26T18:48:04.904Z,6.25
2023-03-26T18:50:40.128Z,6.00
2023-03-26T18:53:21.045Z,5.25
2023-03-26T18:55:50.752Z,4.00
2023-03-26T18:58:31.731Z,3.75
2023-03-26T19:01:03.970Z,6.75
2023-03-26T19:03:40.577Z,9.00
2023-03-26T19:06:12.585Z,8.50
2023-03-26T19:08:43.030Z,8.00
2023-03-26T19:11:11.548Z,11.00
2023-03-26T19:13:43.536Z,8.25
2023-03-26T19:16:29.077Z,6.00
2023-03-26T19:18:59.278Z,5.75
2023-03-26T19:21:26.451Z,7.00
2023-03-26T19:23:55.135Z,9.00
2023-03-26T19:26:22.961Z,9.00
2023-03-26T19:28:54.506Z,13.00
2023-03-26T19:31:39.146Z,11.00
2023-03-26T19:34:12.138Z,11.00
2023-03-26T19:37:01.217Z,13.00
2023-03-26T19:39:42.827Z,8.00
2023-03-26T19:42:17.622Z,8.50
2023-03-26T19:44:45.205Z,8.00
2023-03-26T19:47:31.920Z,10.40
2023-03-26T19:50:25.495Z,10.50
2023-03-26T19:53:28.833Z,7.75
2023-03-26T19:58:37.021Z,7.50
2023-03-26T20:01:05.782Z,12.33
2023-03-26T20:03:43.017Z,9.00
2023-03-26T20:06:15.396Z,5.50
2023-03-26T20:08:42.961Z,31.00
2023-03-26T20:11:38.109Z,15.00
2023-03-26T20:14:26.701Z,26.67
2023-03-26T20:16:53.881Z,5.00
2023-03-26T20:19:25.620Z,10.20
2023-03-26T20:21:52.943Z,11.00
2023-03-26T20:24:21.772Z,5.50
2023-03-26T20:26:49.790Z,8.75
2023-03-26T20:29:17.084Z,39.00
2023-03-26T20:31:48.676Z,8.14
2023-03-26T20:34:20.242Z,10.33
2023-03-26T20:36:54.436Z,18.00
2023-03-26T20:39:22.729Z,12.00
2023-03-26T20:41:51.134Z,16.50
2023-03-26T20:44:20.000Z,8.00
2023-03-26T20:46:48.896Z,12.50
2023-03-26T20:49:18.071Z,8.00
2023-03-26T20:51:45.760Z,7.00
2023-03-26T20:54:24.346Z,13.00
2023-03-26T20:56:52.573Z,10.00
2023-03-26T20:59:26.875Z,14.00
2023-03-26T21:01:55.170Z,10.00
2023-03-26T21:04:22.982Z,12.00
2023-03-26T21:06:50.132Z,9.00
2023-03-26T21:09:24.170Z,7.00
2023-03-26T21:12:05.173Z,4.50
2023-03-26T21:14:41.426Z,5.75
2023-03-26T21:17:18.683Z,8.00
2023-03-26T21:19:47.254Z,5.00
2023-03-26T21:22:35.969Z,7.75
2023-03-26T21:25:21.526Z,7.00
2023-03-26T21:28:03.696Z,6.25
2023-03-26T21:30:31.008Z,1.00
2023-03-26T21:32:59.840Z,5.50
2023-03-26T21:35:27.985Z,2.75
2023-03-26T21:37:57.790Z,4.00
2023-03-26T21:40:26.236Z,2.75
2023-03-26T21:42:55.067Z,6.50
2023-03-26T21:45:23.221Z,6.50
2023-03-26T21:47:50.461Z,10.00
2023-03-26T21:50:21.813Z,5.75
2023-03-26T21:52:51.499Z,7.00
2023-03-26T21:55:23.531Z,6.50
2023-03-26T21:58:07.882Z,6.75
2023-03-26T22:00:55.111Z,9.75
2023-03-26T22:03:33.224Z,6.75
2023-03-26T22:06:08.707Z,3.00
2023-03-26T22:08:39.184Z,9.00
2023-03-26T22:11:08.561Z,5.50
2023-03-26T22:13:38.369Z,5.00
2023-03-26T22:16:08.067Z,6.25
2023-03-26T22:18:35.974Z,5.50
2023-03-26T22:21:03.306Z,7.00
2023-03-26T22:23:38.444Z,8.50
2023-03-26T22:26:06.175Z,8.00
2023-03-26T22:28:34.221Z,5.50
2023-03-26T22:31:09.191Z,5.50
2023-03-26T22:33:38.068Z,7.50
2023-03-26T22:36:22.092Z,6.75
2023-03-26T22:38:54.918Z,5.50
2023-03-26T22:41:23.316Z,5.00
2023-03-26T22:43:53.680Z,6.50
2023-03-26T22:46:21.910Z,6.00
2023-03-26T22:48:49.696Z,8.75
2023-03-26T22:51:18.231Z,6.75
2023-03-26T22:53:46.058Z,3.50
2023-03-26T22:56:14.405Z,5.00
2023-03-26T22:58:42.416Z,5.75
2023-03-26T23:01:19.808Z,5.25
2023-03-26T23:03:47.774Z,4.00
2023-03-26T23:06:17.234Z,5.75
2023-03-26T23:08:45.056Z,5.00
2023-03-26T23:11:15.133Z,4.50
2023-03-26T23:13:43.951Z,5.75
2023-03-26T23:16:13.190Z,6.50
2023-03-26T23:18:41.862Z,6.50
2023-03-26T23:21:19.831Z,6.00
2023-03-26T23:23:49.490Z,5.75
2023-03-26T23:26:17.239Z,5.00
2023-03-26T23:28:44.446Z,5.50
2023-03-26T23:31:13.074Z,6.25
2023-03-26T23:34:04.734Z,4.50
2023-03-26T23:36:32.406Z,7.00
2023-03-26T23:39:01.727Z,2.50
2023-03-26T23:41:29.569Z,6.00
2023-03-26T23:43:57.243Z,5.00
2023-03-26T23:46:30.629Z,4.00
2023-03-26T23:49:05.305Z,5.25
2023-03-26T23:51:32.878Z,8.00
2023-03-26T23:54:01.756Z,6.25
2023-03-26T23:56:30.194Z,3.00
2023-03-26T23:58:59.267Z,4.00
